sensor_id;sensor_type;location;lat;lon;timestamp;P1;durP1;ratioP1;P2;durP2;ratioP2
27925;SDS011;15267;47.838;12.128;2023-11-21T00:00:23;10.93;;;1.70;;
27925;SDS011;15267;47.838;12.128;2023-11-21T00:02:49;4.40;;;1.45;;
27925;SDS011;15267;47.838;12.128;2023-11-21T00:05:15;7.35;;;1.70;;
27925;SDS011;15267;47.838;12.128;2023-11-21T00:07:41;7.22;;;1.73;;
27925;SDS011;15267;47.838;12.128;2023-11-21T00:10:07;9.77;;;1.83;;
27925;SDS011;15267;47.838;12.128;2023-11-21T00:12:34;6.68;;;1.73;;
27925;SDS011;15267;47.838;12.128;2023-11-21T00:15:00;4.93;;;1.45;;
27925;SDS011;15267;47.838;12.128;2023-11-21T00:17:26;5.80;;;1.42;;
27925;SDS011;15267;47.838;12.128;2023-11-21T00:19:52;5.55;;;1.48;;
27925;SDS011;15267;47.838;12.128;2023-11-21T00:22:18;9.73;;;2.10;;
27925;SDS011;15267;47.838;12.128;2023-11-21T00:24:45;7.57;;;1.80;;
27925;SDS011;15267;47.838;12.128;2023-11-21T00:27:11;9.32;;;1.85;;
27925;SDS011;15267;47.838;12.128;2023-11-21T00:29:37;5.63;;;1.58;;
27925;SDS011;15267;47.838;12.128;2023-11-21T00:32:03;6.65;;;1.63;;
27925;SDS011;15267;47.838;12.128;2023-11-21T00:34:30;7.15;;;1.63;;
27925;SDS011;15267;47.838;12.128;2023-11-21T00:36:56;7.55;;;1.55;;
27925;SDS011;15267;47.838;12.128;2023-11-21T00:39:22;7.38;;;1.67;;
27925;SDS011;15267;47.838;12.128;2023-11-21T00:41:48;6.45;;;1.75;;
27925;SDS011;15267;47.838;12.128;2023-11-21T00:44:14;6.32;;;2.00;;
27925;SDS011;15267;47.838;12.128;2023-11-21T00:46:41;4.88;;;1.75;;
27925;SDS011;15267;47.838;12.128;2023-11-21T00:49:07;6.50;;;1.90;;
27925;SDS011;15267;47.838;12.128;2023-11-21T00:51:33;8.30;;;2.45;;
27925;SDS011;15267;47.838;12.128;2023-11-21T00:53:59;6.63;;;1.95;;
27925;SDS011;15267;47.838;12.128;2023-11-21T00:56:26;7.45;;;2.38;;
27925;SDS011;15267;47.838;12.128;2023-11-21T00:58:52;9.40;;;3.05;;
27925;SDS011;15267;47.838;12.128;2023-11-21T01:01:19;5.30;;;2.40;;
27925;SDS011;15267;47.838;12.128;2023-11-21T01:03:48;10.63;;;3.00;;
27925;SDS011;15267;47.838;12.128;2023-11-21T01:06:14;8.55;;;2.70;;
27925;SDS011;15267;47.838;12.128;2023-11-21T01:08:41;11.30;;;2.70;;
27925;SDS011;15267;47.838;12.128;2023-11-21T01:11:07;8.25;;;2.60;;
27925;SDS011;15267;47.838;12.128;2023-11-21T01:13:33;7.70;;;2.80;;
27925;SDS011;15267;47.838;12.128;2023-11-21T01:16:00;8.23;;;2.50;;
27925;SDS011;15267;47.838;12.128;2023-11-21T01:18:26;9.55;;;2.80;;
27925;SDS011;15267;47.838;12.128;2023-11-21T01:20:52;9.00;;;2.55;;
27925;SDS011;15267;47.838;12.128;2023-11-21T01:23:18;11.65;;;2.90;;
27925;SDS011;15267;47.838;12.128;2023-11-21T01:25:44;5.47;;;2.63;;
27925;SDS011;15267;47.838;12.128;2023-11-21T01:28:10;7.28;;;2.90;;
27925;SDS011;15267;47.838;12.128;2023-11-21T01:30:37;8.43;;;2.50;;
27925;SDS011;15267;47.838;12.128;2023-11-21T01:33:03;5.22;;;2.97;;
27925;SDS011;15267;47.838;12.128;2023-11-21T01:35:29;5.55;;;3.20;;
27925;SDS011;15267;47.838;12.128;2023-11-21T01:37:55;9.90;;;3.67;;
27925;SDS011;15267;47.838;12.128;2023-11-21T01:40:21;8.30;;;3.35;;
27925;SDS011;15267;47.838;12.128;2023-11-21T01:42:47;8.95;;;3.67;;
27925;SDS011;15267;47.838;12.128;2023-11-21T01:45:13;8.32;;;4.15;;
27925;SDS011;15267;47.838;12.128;2023-11-21T01:47:40;8.57;;;3.97;;
27925;SDS011;15267;47.838;12.128;2023-11-21T01:50:09;9.27;;;4.05;;
27925;SDS011;15267;47.838;12.128;2023-11-21T01:52:37;9.15;;;3.60;;
27925;SDS011;15267;47.838;12.128;2023-11-21T01:55:04;9.38;;;3.88;;
27925;SDS011;15267;47.838;12.128;2023-11-21T01:57:33;12.32;;;4.18;;
27925;SDS011;15267;47.838;12.128;2023-11-21T01:59:59;6.97;;;3.58;;
27925;SDS011;15267;47.838;12.128;2023-11-21T02:02:40;10.15;;;3.70;;
27925;SDS011;15267;47.838;12.128;2023-11-21T02:05:06;10.20;;;4.18;;
27925;SDS011;15267;47.838;12.128;2023-11-21T02:07:33;10.43;;;3.85;;
27925;SDS011;15267;47.838;12.128;2023-11-21T02:09:59;8.90;;;4.00;;
27925;SDS011;15267;47.838;12.128;2023-11-21T02:12:25;9.25;;;3.95;;
27925;SDS011;15267;47.838;12.128;2023-11-21T02:14:51;11.48;;;4.10;;
27925;SDS011;15267;47.838;12.128;2023-11-21T02:17:17;10.15;;;5.07;;
27925;SDS011;15267;47.838;12.128;2023-11-21T02:19:43;11.13;;;4.97;;
27925;SDS011;15267;47.838;12.128;2023-11-21T02:22:09;10.15;;;5.28;;
27925;SDS011;15267;47.838;12.128;2023-11-21T02:24:36;10.48;;;4.45;;
27925;SDS011;15267;47.838;12.128;2023-11-21T02:27:02;10.18;;;4.78;;
27925;SDS011;15267;47.838;12.128;2023-11-21T02:29:28;9.82;;;5.07;;
27925;SDS011;15267;47.838;12.128;2023-11-21T02:31:54;9.55;;;4.88;;
27925;SDS011;15267;47.838;12.128;2023-11-21T02:34:21;10.60;;;5.18;;
27925;SDS011;15267;47.838;12.128;2023-11-21T02:36:47;10.30;;;4.82;;
27925;SDS011;15267;47.838;12.128;2023-11-21T02:39:16;7.10;;;4.50;;
27925;SDS011;15267;47.838;12.128;2023-11-21T02:41:43;10.45;;;4.57;;
27925;SDS011;15267;47.838;12.128;2023-11-21T02:44:09;19.17;;;8.02;;
27925;SDS011;15267;47.838;12.128;2023-11-21T02:46:36;14.07;;;7.35;;
27925;SDS011;15267;47.838;12.128;2023-11-21T02:49:05;14.65;;;6.85;;
27925;SDS011;15267;47.838;12.128;2023-11-21T02:51:31;19.60;;;8.00;;
27925;SDS011;15267;47.838;12.128;2023-11-21T02:53:58;13.35;;;7.53;;
27925;SDS011;15267;47.838;12.128;2023-11-21T02:56:25;13.68;;;7.45;;
27925;SDS011;15267;47.838;12.128;2023-11-21T02:58:52;16.27;;;7.35;;
27925;SDS011;15267;47.838;12.128;2023-11-21T03:01:18;13.85;;;7.93;;
27925;SDS011;15267;47.838;12.128;2023-11-21T03:03:44;15.65;;;7.80;;
27925;SDS011;15267;47.838;12.128;2023-11-21T03:06:10;9.80;;;6.50;;
27925;SDS011;15267;47.838;12.128;2023-11-21T03:08:36;13.93;;;7.35;;
27925;SDS011;15267;47.838;12.128;2023-11-21T03:11:02;10.52;;;6.90;;
27925;SDS011;15267;47.838;12.128;2023-11-21T03:13:28;9.40;;;6.30;;
27925;SDS011;15267;47.838;12.128;2023-11-21T03:15:54;8.38;;;5.68;;
27925;SDS011;15267;47.838;12.128;2023-11-21T03:18:20;9.65;;;5.90;;
27925;SDS011;15267;47.838;12.128;2023-11-21T03:20:49;10.68;;;6.00;;
27925;SDS011;15267;47.838;12.128;2023-11-21T03:23:15;8.27;;;5.78;;
27925;SDS011;15267;47.838;12.128;2023-11-21T03:25:41;11.00;;;6.28;;
27925;SDS011;15267;47.838;12.128;2023-11-21T03:28:08;10.88;;;6.45;;
27925;SDS011;15267;47.838;12.128;2023-11-21T03:30:33;10.60;;;6.32;;
27925;SDS011;15267;47.838;12.128;2023-11-21T03:33:00;9.75;;;6.43;;
27925;SDS011;15267;47.838;12.128;2023-11-21T03:35:26;10.65;;;6.90;;
27925;SDS011;15267;47.838;12.128;2023-11-21T03:37:52;8.43;;;6.38;;
27925;SDS011;15267;47.838;12.128;2023-11-21T03:40:18;7.63;;;6.50;;
27925;SDS011;15267;47.838;12.128;2023-11-21T03:42:46;8.98;;;6.07;;
27925;SDS011;15267;47.838;12.128;2023-11-21T03:45:12;8.70;;;6.88;;
27925;SDS011;15267;47.838;12.128;2023-11-21T03:47:39;8.45;;;6.78;;
27925;SDS011;15267;47.838;12.128;2023-11-21T03:50:05;13.15;;;8.05;;
27925;SDS011;15267;47.838;12.128;2023-11-21T03:52:31;9.10;;;7.20;;
27925;SDS011;15267;47.838;12.128;2023-11-21T03:54:57;10.63;;;7.60;;
27925;SDS011;15267;47.838;12.128;2023-11-21T03:57:23;9.23;;;7.20;;
27925;SDS011;15267;47.838;12.128;2023-11-21T03:59:49;10.30;;;7.45;;
27925;SDS011;15267;47.838;12.128;2023-11-21T04:02:15;10.60;;;7.07;;
27925;SDS011;15267;47.838;12.128;2023-11-21T04:04:42;8.93;;;6.57;;
27925;SDS011;15267;47.838;12.128;2023-11-21T04:07:09;12.73;;;7.65;;
27925;SDS011;15267;47.838;12.128;2023-11-21T04:09:36;10.02;;;7.40;;
27925;SDS011;15267;47.838;12.128;2023-11-21T04:12:02;9.90;;;6.57;;
27925;SDS011;15267;47.838;12.128;2023-11-21T04:14:28;8.75;;;6.63;;
27925;SDS011;15267;47.838;12.128;2023-11-21T04:16:54;8.38;;;6.75;;
27925;SDS011;15267;47.838;12.128;2023-11-21T04:19:20;10.60;;;6.80;;
27925;SDS011;15267;47.838;12.128;2023-11-21T04:21:46;9.50;;;6.78;;
27925;SDS011;15267;47.838;12.128;2023-11-21T04:24:11;10.00;;;6.72;;
27925;SDS011;15267;47.838;12.128;2023-11-21T04:26:37;11.52;;;6.82;;
27925;SDS011;15267;47.838;12.128;2023-11-21T04:29:03;11.93;;;6.90;;
27925;SDS011;15267;47.838;12.128;2023-11-21T04:31:30;8.55;;;6.55;;
27925;SDS011;15267;47.838;12.128;2023-11-21T04:33:56;11.93;;;6.35;;
27925;SDS011;15267;47.838;12.128;2023-11-21T04:36:22;10.95;;;7.13;;
27925;SDS011;15267;47.838;12.128;2023-11-21T04:38:48;9.48;;;6.45;;
27925;SDS011;15267;47.838;12.128;2023-11-21T04:41:14;11.68;;;6.50;;
27925;SDS011;15267;47.838;12.128;2023-11-21T04:43:40;9.50;;;6.05;;
27925;SDS011;15267;47.838;12.128;2023-11-21T04:46:07;8.98;;;6.22;;
27925;SDS011;15267;47.838;12.128;2023-11-21T04:48:33;8.52;;;5.88;;
27925;SDS011;15267;47.838;12.128;2023-11-21T04:50:59;8.38;;;5.78;;
27925;SDS011;15267;47.838;12.128;2023-11-21T04:53:25;9.38;;;5.35;;
27925;SDS011;15267;47.838;12.128;2023-11-21T04:55:51;8.70;;;5.22;;
27925;SDS011;15267;47.838;12.128;2023-11-21T04:58:17;9.93;;;5.28;;
27925;SDS011;15267;47.838;12.128;2023-11-21T05:00:44;10.13;;;4.60;;
27925;SDS011;15267;47.838;12.128;2023-11-21T05:03:10;9.82;;;5.03;;
27925;SDS011;15267;47.838;12.128;2023-11-21T05:05:37;10.43;;;4.93;;
27925;SDS011;15267;47.838;12.128;2023-11-21T05:08:03;9.35;;;4.78;;
27925;SDS011;15267;47.838;12.128;2023-11-21T05:10:30;9.07;;;5.25;;
27925;SDS011;15267;47.838;12.128;2023-11-21T05:12:56;12.13;;;5.32;;
27925;SDS011;15267;47.838;12.128;2023-11-21T05:15:22;11.60;;;5.38;;
27925;SDS011;15267;47.838;12.128;2023-11-21T05:17:48;11.25;;;5.82;;
27925;SDS011;15267;47.838;12.128;2023-11-21T05:20:18;12.25;;;6.65;;
27925;SDS011;15267;47.838;12.128;2023-11-21T05:22:49;11.05;;;5.60;;
27925;SDS011;15267;47.838;12.128;2023-11-21T05:25:16;8.68;;;5.43;;
27925;SDS011;15267;47.838;12.128;2023-11-21T05:27:43;9.82;;;5.80;;
27925;SDS011;15267;47.838;12.128;2023-11-21T05:30:09;11.05;;;6.20;;
27925;SDS011;15267;47.838;12.128;2023-11-21T05:32:37;9.23;;;5.70;;
27925;SDS011;15267;47.838;12.128;2023-11-21T05:35:04;10.52;;;5.35;;
27925;SDS011;15267;47.838;12.128;2023-11-21T05:37:34;12.63;;;6.00;;
27925;SDS011;15267;47.838;12.128;2023-11-21T05:40:01;12.27;;;6.25;;
27925;SDS011;15267;47.838;12.128;2023-11-21T05:42:31;10.80;;;5.53;;
27925;SDS011;15267;47.838;12.128;2023-11-21T05:44:57;7.82;;;5.70;;
27925;SDS011;15267;47.838;12.128;2023-11-21T05:47:44;14.00;;;6.57;;
27925;SDS011;15267;47.838;12.128;2023-11-21T05:50:14;12.13;;;7.43;;
27925;SDS011;15267;47.838;12.128;2023-11-21T05:52:40;12.13;;;6.78;;
27925;SDS011;15267;47.838;12.128;2023-11-21T05:55:07;12.77;;;7.60;;
27925;SDS011;15267;47.838;12.128;2023-11-21T05:57:37;9.88;;;6.47;;
27925;SDS011;15267;47.838;12.128;2023-11-21T06:00:04;13.80;;;7.13;;
27925;SDS011;15267;47.838;12.128;2023-11-21T06:02:36;9.07;;;6.55;;
27925;SDS011;15267;47.838;12.128;2023-11-21T06:05:03;11.75;;;7.10;;
27925;SDS011;15267;47.838;12.128;2023-11-21T06:07:29;13.27;;;8.30;;
27925;SDS011;15267;47.838;12.128;2023-11-21T06:09:55;13.38;;;7.10;;
27925;SDS011;15267;47.838;12.128;2023-11-21T06:12:21;9.55;;;6.93;;
27925;SDS011;15267;47.838;12.128;2023-11-21T06:14:47;11.93;;;7.43;;
27925;SDS011;15267;47.838;12.128;2023-11-21T06:17:13;13.77;;;8.18;;
27925;SDS011;15267;47.838;12.128;2023-11-21T06:19:39;16.13;;;10.73;;
27925;SDS011;15267;47.838;12.128;2023-11-21T06:22:05;14.80;;;10.00;;
27925;SDS011;15267;47.838;12.128;2023-11-21T06:24:31;13.60;;;10.18;;
27925;SDS011;15267;47.838;12.128;2023-11-21T06:26:57;12.65;;;8.55;;
27925;SDS011;15267;47.838;12.128;2023-11-21T06:29:23;11.48;;;8.60;;
27925;SDS011;15267;47.838;12.128;2023-11-21T06:31:49;13.50;;;8.75;;
27925;SDS011;15267;47.838;12.128;2023-11-21T06:34:15;16.13;;;9.00;;
27925;SDS011;15267;47.838;12.128;2023-11-21T06:36:41;10.45;;;7.40;;
27925;SDS011;15267;47.838;12.128;2023-11-21T06:39:07;10.07;;;8.20;;
27925;SDS011;15267;47.838;12.128;2023-11-21T06:41:33;12.60;;;8.75;;
27925;SDS011;15267;47.838;12.128;2023-11-21T06:43:59;13.85;;;8.43;;
27925;SDS011;15267;47.838;12.128;2023-11-21T06:46:25;9.88;;;7.72;;
27925;SDS011;15267;47.838;12.128;2023-11-21T06:48:51;12.93;;;7.68;;
27925;SDS011;15267;47.838;12.128;2023-11-21T06:51:17;11.73;;;8.75;;
27925;SDS011;15267;47.838;12.128;2023-11-21T06:53:43;10.70;;;8.50;;
27925;SDS011;15267;47.838;12.128;2023-11-21T06:56:18;13.68;;;8.35;;
27925;SDS011;15267;47.838;12.128;2023-11-21T06:58:45;9.18;;;7.47;;
27925;SDS011;15267;47.838;12.128;2023-11-21T07:01:11;11.55;;;7.85;;
27925;SDS011;15267;47.838;12.128;2023-11-21T07:03:38;11.73;;;7.68;;
27925;SDS011;15267;47.838;12.128;2023-11-21T07:06:04;9.80;;;6.82;;
27925;SDS011;15267;47.838;12.128;2023-11-21T07:08:30;10.90;;;7.20;;
27925;SDS011;15267;47.838;12.128;2023-11-21T07:10:56;14.77;;;8.38;;
27925;SDS011;15267;47.838;12.128;2023-11-21T07:13:22;12.82;;;8.75;;
27925;SDS011;15267;47.838;12.128;2023-11-21T07:15:48;11.07;;;7.25;;
27925;SDS011;15267;47.838;12.128;2023-11-21T07:18:14;11.65;;;7.72;;
27925;SDS011;15267;47.838;12.128;2023-11-21T07:20:40;11.35;;;7.68;;
27925;SDS011;15267;47.838;12.128;2023-11-21T07:23:06;12.63;;;8.55;;
27925;SDS011;15267;47.838;12.128;2023-11-21T07:25:32;11.10;;;7.97;;
27925;SDS011;15267;47.838;12.128;2023-11-21T07:27:59;13.02;;;8.40;;
27925;SDS011;15267;47.838;12.128;2023-11-21T07:30:25;11.27;;;8.20;;
27925;SDS011;15267;47.838;12.128;2023-11-21T07:32:52;13.57;;;8.38;;
27925;SDS011;15267;47.838;12.128;2023-11-21T07:35:18;14.18;;;8.75;;
27925;SDS011;15267;47.838;12.128;2023-11-21T07:37:44;10.93;;;8.40;;
27925;SDS011;15267;47.838;12.128;2023-11-21T07:40:11;12.25;;;8.48;;
27925;SDS011;15267;47.838;12.128;2023-11-21T07:42:38;16.48;;;9.18;;
27925;SDS011;15267;47.838;12.128;2023-11-21T07:45:04;10.88;;;8.05;;
27925;SDS011;15267;47.838;12.128;2023-11-21T07:47:31;11.48;;;8.85;;
27925;SDS011;15267;47.838;12.128;2023-11-21T07:49:59;12.45;;;8.98;;
27925;SDS011;15267;47.838;12.128;2023-11-21T07:52:25;12.38;;;8.48;;
27925;SDS011;15267;47.838;12.128;2023-11-21T07:54:51;14.20;;;9.10;;
27925;SDS011;15267;47.838;12.128;2023-11-21T07:57:17;9.27;;;7.45;;
27925;SDS011;15267;47.838;12.128;2023-11-21T07:59:43;9.95;;;7.57;;
27925;SDS011;15267;47.838;12.128;2023-11-21T08:02:09;13.80;;;8.88;;
27925;SDS011;15267;47.838;12.128;2023-11-21T08:04:35;31.70;;;18.63;;
27925;SDS011;15267;47.838;12.128;2023-11-21T08:07:01;22.75;;;13.82;;
27925;SDS011;15267;47.838;12.128;2023-11-21T08:09:28;12.43;;;8.60;;
27925;SDS011;15267;47.838;12.128;2023-11-21T08:11:54;13.20;;;8.38;;
27925;SDS011;15267;47.838;12.128;2023-11-21T08:14:21;14.48;;;10.57;;
27925;SDS011;15267;47.838;12.128;2023-11-21T08:16:50;15.85;;;11.25;;
27925;SDS011;15267;47.838;12.128;2023-11-21T08:19:16;13.02;;;9.32;;
27925;SDS011;15267;47.838;12.128;2023-11-21T08:21:43;40.55;;;25.85;;
27925;SDS011;15267;47.838;12.128;2023-11-21T08:24:09;15.45;;;9.45;;
27925;SDS011;15267;47.838;12.128;2023-11-21T08:26:36;13.70;;;8.85;;
27925;SDS011;15267;47.838;12.128;2023-11-21T08:29:02;17.42;;;11.40;;
27925;SDS011;15267;47.838;12.128;2023-11-21T08:31:29;15.65;;;10.43;;
27925;SDS011;15267;47.838;12.128;2023-11-21T08:33:55;36.58;;;23.85;;
27925;SDS011;15267;47.838;12.128;2023-11-21T08:36:22;29.92;;;20.73;;
27925;SDS011;15267;47.838;12.128;2023-11-21T08:38:49;21.73;;;14.15;;
27925;SDS011;15267;47.838;12.128;2023-11-21T08:41:17;44.33;;;33.70;;
27925;SDS011;15267;47.838;12.128;2023-11-21T08:43:46;72.55;;;56.00;;
27925;SDS011;15267;47.838;12.128;2023-11-21T08:46:13;22.67;;;15.13;;
27925;SDS011;15267;47.838;12.128;2023-11-21T08:48:40;16.55;;;12.60;;
27925;SDS011;15267;47.838;12.128;2023-11-21T08:51:06;14.52;;;9.18;;
27925;SDS011;15267;47.838;12.128;2023-11-21T08:53:32;16.95;;;9.00;;
27925;SDS011;15267;47.838;12.128;2023-11-21T08:55:58;11.73;;;7.35;;
27925;SDS011;15267;47.838;12.128;2023-11-21T08:58:24;12.75;;;6.18;;
27925;SDS011;15267;47.838;12.128;2023-11-21T09:00:51;10.32;;;6.50;;
27925;SDS011;15267;47.838;12.128;2023-11-21T09:03:17;11.07;;;5.88;;
27925;SDS011;15267;47.838;12.128;2023-11-21T09:05:42;11.40;;;6.07;;
27925;SDS011;15267;47.838;12.128;2023-11-21T09:08:09;10.85;;;6.30;;
27925;SDS011;15267;47.838;12.128;2023-11-21T09:10:35;12.48;;;5.40;;
27925;SDS011;15267;47.838;12.128;2023-11-21T09:13:01;13.27;;;5.45;;
27925;SDS011;15267;47.838;12.128;2023-11-21T09:15:27;13.40;;;8.13;;
27925;SDS011;15267;47.838;12.128;2023-11-21T09:17:53;12.27;;;5.82;;
27925;SDS011;15267;47.838;12.128;2023-11-21T09:20:19;12.18;;;5.60;;
27925;SDS011;15267;47.838;12.128;2023-11-21T09:22:47;9.18;;;4.78;;
27925;SDS011;15267;47.838;12.128;2023-11-21T09:25:14;9.82;;;4.22;;
27925;SDS011;15267;47.838;12.128;2023-11-21T09:27:40;8.48;;;3.95;;
27925;SDS011;15267;47.838;12.128;2023-11-21T09:30:06;7.57;;;3.15;;
27925;SDS011;15267;47.838;12.128;2023-11-21T09:32:37;9.80;;;3.38;;
27925;SDS011;15267;47.838;12.128;2023-11-21T09:35:04;5.45;;;2.80;;
27925;SDS011;15267;47.838;12.128;2023-11-21T09:37:30;4.75;;;2.58;;
27925;SDS011;15267;47.838;12.128;2023-11-21T09:39:56;6.88;;;3.70;;
27925;SDS011;15267;47.838;12.128;2023-11-21T09:42:25;3.53;;;2.10;;
27925;SDS011;15267;47.838;12.128;2023-11-21T09:45:00;8.10;;;2.40;;
27925;SDS011;15267;47.838;12.128;2023-11-21T09:47:29;3.47;;;1.80;;
27925;SDS011;15267;47.838;12.128;2023-11-21T09:49:56;2.92;;;1.70;;
27925;SDS011;15267;47.838;12.128;2023-11-21T09:52:24;3.83;;;1.83;;
27925;SDS011;15267;47.838;12.128;2023-11-21T09:54:51;2.90;;;1.60;;
27925;SDS011;15267;47.838;12.128;2023-11-21T09:57:19;3.47;;;1.65;;
27925;SDS011;15267;47.838;12.128;2023-11-21T09:59:46;3.42;;;1.80;;
27925;SDS011;15267;47.838;12.128;2023-11-21T10:02:13;2.58;;;1.30;;
27925;SDS011;15267;47.838;12.128;2023-11-21T10:04:39;3.22;;;1.52;;
27925;SDS011;15267;47.838;12.128;2023-11-21T10:07:05;3.92;;;1.42;;
27925;SDS011;15267;47.838;12.128;2023-11-21T10:09:35;2.50;;;1.27;;
27925;SDS011;15267;47.838;12.128;2023-11-21T10:12:02;2.40;;;0.85;;
27925;SDS011;15267;47.838;12.128;2023-11-21T10:14:31;1.45;;;0.60;;
27925;SDS011;15267;47.838;12.128;2023-11-21T10:16:57;1.77;;;0.73;;
27925;SDS011;15267;47.838;12.128;2023-11-21T10:19:23;2.88;;;0.93;;
27925;SDS011;15267;47.838;12.128;2023-11-21T10:21:49;1.73;;;1.00;;
27925;SDS011;15267;47.838;12.128;2023-11-21T10:24:16;2.35;;;1.00;;
27925;SDS011;15267;47.838;12.128;2023-11-21T10:26:43;3.30;;;0.80;;
27925;SDS011;15267;47.838;12.128;2023-11-21T10:29:10;1.77;;;0.65;;
27925;SDS011;15267;47.838;12.128;2023-11-21T10:31:41;1.42;;;0.60;;
27925;SDS011;15267;47.838;12.128;2023-11-21T10:36:39;1.50;;;0.88;;
27925;SDS011;15267;47.838;12.128;2023-11-21T10:39:05;2.35;;;0.77;;
27925;SDS011;15267;47.838;12.128;2023-11-21T10:41:31;2.58;;;0.90;;
27925;SDS011;15267;47.838;12.128;2023-11-21T10:43:57;2.42;;;0.98;;
27925;SDS011;15267;47.838;12.128;2023-11-21T10:46:23;3.90;;;1.40;;
27925;SDS011;15267;47.838;12.128;2023-11-21T10:48:54;2.63;;;1.00;;
27925;SDS011;15267;47.838;12.128;2023-11-21T10:51:21;2.50;;;1.50;;
27925;SDS011;15267;47.838;12.128;2023-11-21T10:53:49;2.95;;;1.80;;
27925;SDS011;15267;47.838;12.128;2023-11-21T10:56:16;3.40;;;1.10;;
27925;SDS011;15267;47.838;12.128;2023-11-21T10:58:46;4.25;;;2.10;;
27925;SDS011;15267;47.838;12.128;2023-11-21T11:01:12;2.42;;;1.23;;
27925;SDS011;15267;47.838;12.128;2023-11-21T11:03:39;1.83;;;1.67;;
27925;SDS011;15267;47.838;12.128;2023-11-21T11:06:06;4.07;;;1.83;;
27925;SDS011;15267;47.838;12.128;2023-11-21T11:08:38;3.60;;;1.70;;
27925;SDS011;15267;47.838;12.128;2023-11-21T11:11:05;2.25;;;1.20;;
27925;SDS011;15267;47.838;12.128;2023-11-21T11:13:31;2.15;;;1.25;;
27925;SDS011;15267;47.838;12.128;2023-11-21T11:16:00;2.53;;;0.88;;
27925;SDS011;15267;47.838;12.128;2023-11-21T11:18:27;2.60;;;1.10;;
27925;SDS011;15267;47.838;12.128;2023-11-21T11:20:54;2.38;;;1.08;;
27925;SDS011;15267;47.838;12.128;2023-11-21T11:23:28;2.47;;;1.20;;
27925;SDS011;15267;47.838;12.128;2023-11-21T11:28:32;1.98;;;1.42;;
27925;SDS011;15267;47.838;12.128;2023-11-21T11:31:05;4.82;;;2.05;;
27925;SDS011;15267;47.838;12.128;2023-11-21T11:36:37;5.35;;;2.40;;
27925;SDS011;15267;47.838;12.128;2023-11-21T11:39:26;2.65;;;1.70;;
27925;SDS011;15267;47.838;12.128;2023-11-21T11:41:50;3.42;;;1.60;;
27925;SDS011;15267;47.838;12.128;2023-11-21T11:47:01;2.03;;;1.13;;
27925;SDS011;15267;47.838;12.128;2023-11-21T11:49:27;2.90;;;1.17;;
27925;SDS011;15267;47.838;12.128;2023-11-21T11:54:38;1.90;;;1.23;;
27925;SDS011;15267;47.838;12.128;2023-11-21T11:57:04;3.53;;;1.40;;
27925;SDS011;15267;47.838;12.128;2023-11-21T11:59:31;3.85;;;1.33;;
27925;SDS011;15267;47.838;12.128;2023-11-21T12:02:17;32.72;;;18.00;;
27925;SDS011;15267;47.838;12.128;2023-11-21T12:04:47;7.40;;;3.17;;
27925;SDS011;15267;47.838;12.128;2023-11-21T12:07:13;13.05;;;7.82;;
27925;SDS011;15267;47.838;12.128;2023-11-21T12:09:39;3.25;;;1.85;;
27925;SDS011;15267;47.838;12.128;2023-11-21T12:12:05;2.92;;;1.30;;
27925;SDS011;15267;47.838;12.128;2023-11-21T12:14:31;2.80;;;1.10;;
27925;SDS011;15267;47.838;12.128;2023-11-21T12:16:57;2.38;;;1.15;;
27925;SDS011;15267;47.838;12.128;2023-11-21T12:19:24;2.75;;;0.90;;
27925;SDS011;15267;47.838;12.128;2023-11-21T12:21:51;2.05;;;1.02;;
27925;SDS011;15267;47.838;12.128;2023-11-21T12:24:17;1.95;;;1.10;;
27925;SDS011;15267;47.838;12.128;2023-11-21T12:26:44;2.45;;;1.13;;
27925;SDS011;15267;47.838;12.128;2023-11-21T12:29:10;3.05;;;1.30;;
27925;SDS011;15267;47.838;12.128;2023-11-21T12:31:36;2.55;;;1.20;;
27925;SDS011;15267;47.838;12.128;2023-11-21T12:34:02;1.75;;;0.80;;
27925;SDS011;15267;47.838;12.128;2023-11-21T12:36:29;2.55;;;0.90;;
27925;SDS011;15267;47.838;12.128;2023-11-21T12:38:55;1.70;;;1.40;;
27925;SDS011;15267;47.838;12.128;2023-11-21T12:41:21;2.55;;;1.40;;
27925;SDS011;15267;47.838;12.128;2023-11-21T12:43:48;2.45;;;1.00;;
27925;SDS011;15267;47.838;12.128;2023-11-21T12:46:14;2.90;;;1.77;;
27925;SDS011;15267;47.838;12.128;2023-11-21T12:48:44;3.05;;;1.20;;
27925;SDS011;15267;47.838;12.128;2023-11-21T12:51:13;2.27;;;1.03;;
27925;SDS011;15267;47.838;12.128;2023-11-21T12:53:41;1.38;;;1.10;;
27925;SDS011;15267;47.838;12.128;2023-11-21T12:56:09;1.90;;;0.95;;
27925;SDS011;15267;47.838;12.128;2023-11-21T12:58:36;1.92;;;1.27;;
27925;SDS011;15267;47.838;12.128;2023-11-21T13:01:04;1.10;;;1.00;;
27925;SDS011;15267;47.838;12.128;2023-11-21T13:03:30;2.33;;;0.90;;
27925;SDS011;15267;47.838;12.128;2023-11-21T13:05:57;2.67;;;1.10;;
27925;SDS011;15267;47.838;12.128;2023-11-21T13:08:24;3.15;;;1.00;;
27925;SDS011;15267;47.838;12.128;2023-11-21T13:10:52;1.77;;;0.93;;
27925;SDS011;15267;47.838;12.128;2023-11-21T13:13:19;1.92;;;1.10;;
27925;SDS011;15267;47.838;12.128;2023-11-21T13:15:53;2.08;;;1.10;;
27925;SDS011;15267;47.838;12.128;2023-11-21T13:18:25;5.82;;;2.90;;
27925;SDS011;15267;47.838;12.128;2023-11-21T13:21:01;7.05;;;3.85;;
27925;SDS011;15267;47.838;12.128;2023-11-21T13:23:34;2.20;;;1.15;;
27925;SDS011;15267;47.838;12.128;2023-11-21T13:26:01;1.75;;;1.02;;
27925;SDS011;15267;47.838;12.128;2023-11-21T13:28:29;1.25;;;0.80;;
27925;SDS011;15267;47.838;12.128;2023-11-21T13:30:58;16.25;;;7.68;;
27925;SDS011;15267;47.838;12.128;2023-11-21T13:33:28;23.15;;;13.75;;
27925;SDS011;15267;47.838;12.128;2023-11-21T13:35:53;29.02;;;20.15;;
27925;SDS011;15267;47.838;12.128;2023-11-21T13:38:21;1.92;;;1.08;;
27925;SDS011;15267;47.838;12.128;2023-11-21T13:40:55;4.70;;;2.92;;
27925;SDS011;15267;47.838;12.128;2023-11-21T13:43:23;1.67;;;0.80;;
27925;SDS011;15267;47.838;12.128;2023-11-21T13:45:51;1.42;;;0.88;;
27925;SDS011;15267;47.838;12.128;2023-11-21T13:48:26;1.83;;;1.00;;
27925;SDS011;15267;47.838;12.128;2023-11-21T13:51:12;3.28;;;1.73;;
27925;SDS011;15267;47.838;12.128;2023-11-21T13:53:42;3.05;;;1.70;;
27925;SDS011;15267;47.838;12.128;2023-11-21T13:56:09;3.00;;;1.60;;
27925;SDS011;15267;47.838;12.128;2023-11-21T13:58:36;1.50;;;1.20;;
27925;SDS011;15267;47.838;12.128;2023-11-21T14:01:20;1.95;;;1.45;;
27925;SDS011;15267;47.838;12.128;2023-11-21T14:03:56;2.20;;;1.30;;
27925;SDS011;15267;47.838;12.128;2023-11-21T14:06:25;2.22;;;1.58;;
27925;SDS011;15267;47.838;12.128;2023-11-21T14:08:59;5.72;;;1.20;;
27925;SDS011;15267;47.838;12.128;2023-11-21T14:11:30;2.08;;;1.30;;
27925;SDS011;15267;47.838;12.128;2023-11-21T14:13:56;2.20;;;1.20;;
27925;SDS011;15267;47.838;12.128;2023-11-21T14:16:24;3.03;;;1.20;;
27925;SDS011;15267;47.838;12.128;2023-11-21T14:18:50;2.20;;;1.02;;
27925;SDS011;15267;47.838;12.128;2023-11-21T14:21:26;2.35;;;1.10;;
27925;SDS011;15267;47.838;12.128;2023-11-21T14:23:52;1.48;;;0.95;;
27925;SDS011;15267;47.838;12.128;2023-11-21T14:26:20;1.52;;;0.95;;
27925;SDS011;15267;47.838;12.128;2023-11-21T14:28:46;11.88;;;8.32;;
27925;SDS011;15267;47.838;12.128;2023-11-21T14:31:14;4.90;;;3.83;;
27925;SDS011;15267;47.838;12.128;2023-11-21T14:33:42;3.72;;;2.17;;
27925;SDS011;15267;47.838;12.128;2023-11-21T14:36:08;3.67;;;1.58;;
27925;SDS011;15267;47.838;12.128;2023-11-21T14:38:35;2.33;;;1.70;;
27925;SDS011;15267;47.838;12.128;2023-11-21T14:41:02;2.42;;;1.55;;